Latest Weather Observations for Ferny Creek

IDV60901

Issued at 11:51 am EDT Sunday 26 February 2017 (issued every 10 minutes, with the page automatically refreshed every 10 minutes)

About weather observations | Map of Melbourne area stations | Latest observations for Melbourne area | Other Formats
Station Details ID: 086266 Name: FERNY CREEK Lat: -37.87 Lon: 145.35 Height: 512.9 m
Data from the previous 72 hours. | See also: Recent months at Ferny Creek
Date/Time
EDT
Temp
°C
App
Temp
°C
Dew
Point
°C
Rel
Hum
%
Delta-T
°C
Wind Press
QNH
hPa
Press
MSL
hPa
Rain since
9am
mm
Dir  Spd
km/h
Gust
km/h
Spd
kts
Gust
kts
26/11:30am 20.7 20.0 11.9 57 5.0 E 7 11 4 6 1022.9 1021.4 0.0
26/11:00am 20.0 19.6 12.3 61 4.4 E 6 9 3 5 1022.9 1021.4 0.0
26/10:30am 19.4 18.8 12.2 63 4.1 E 7 11 4 6 1022.9 1021.4 0.0
26/10:00am 18.9 18.4 12.6 67 3.6 ENE 7 11 4 6 1022.7 1021.2 0.0
26/09:30am 18.0 17.2 11.8 67 3.5 ENE 7 13 4 7 1022.6 1021.1 0.0
26/09:00am 16.8 16.1 11.9 73 2.7 ENE 7 13 4 7 1022.4 1020.9 0.0
26/08:30am 15.7 14.5 11.5 76 2.3 ENE 9 13 5 7 1022.0 1020.5 0.0
26/08:00am 14.5 13.7 11.1 80 1.8 NE 6 9 3 5 1021.9 1020.4 0.0
26/07:30am 12.6 12.5 10.7 88 1.0 ENE 2 4 1 2 1021.8 1020.3 0.0
26/07:00am 12.2 11.2 10.4 89 1.0 E 6 9 3 5 1021.4 1019.8 0.0
26/06:30am 12.2 11.3 10.6 90 0.9 E 6 9 3 5 1021.0 1019.4 0.0
26/06:00am 11.5 11.2 10.2 92 0.7 ENE 2 4 1 2 1020.5 1019.0 0.0
26/05:30am 11.7 11.5 10.3 91 0.7 ENE 2 4 1 2 1020.4 1018.9 0.0
26/05:00am 11.9 10.9 11.0 94 0.5 E 7 13 4 7 1020.1 1018.6 0.0
26/04:30am 11.4 10.3 10.8 96 0.3 ENE 7 13 4 7 1019.9 1018.4 0.0
26/04:00am 11.5 10.1 10.9 96 0.3 ENE 9 17 5 9 1020.2 1018.7 0.0
26/03:30am 11.6 10.6 11.0 96 0.3 E 7 17 4 9 1020.7 1019.2 0.0
26/03:00am 12.0 10.7 11.4 96 0.3 ENE 9 13 5 7 1020.7 1019.2 0.0
26/02:30am 12.1 10.1 11.5 96 0.3 E 13 22 7 12 1020.7 1019.2 0.0
26/02:00am 12.4 10.1 11.8 96 0.3 E 15 22 8 12 1020.7 1019.2 0.0
26/01:30am 12.5 11.0 11.9 96 0.3 ESE 11 19 6 10 1021.0 1019.4 0.0
26/01:00am 12.4 10.5 11.8 96 0.3 E 13 22 7 12 1021.0 1019.4 0.0
26/12:30am 12.3 10.3 11.5 95 0.4 E 13 20 7 11 1021.4 1019.8 0.0
26/12:00am 12.2 10.1 11.1 93 0.6 E 13 24 7 13 1021.7 1020.2 0.0
 
Date/Time
EDT
Temp
°C
App
Temp
°C
Dew
Point
°C
Rel
Hum
%
Delta-T
°C
Wind Press
QNH
hPa
Press
MSL
hPa
Rain since
9am
mm
Dir  Spd
km/h
Gust
km/h
Spd
kts
Gust
kts
25/11:30pm 12.2 9.9 10.6 90 0.9 E 13 22 7 12 1021.7 1020.2 0.0
25/11:00pm 12.6 10.3 10.5 87 1.1 ESE 13 20 7 11 1021.9 1020.4 0.0
25/10:30pm 12.8 10.9 10.5 86 1.2 E 11 20 6 11 1022.1 1020.6 0.0
25/10:00pm 13.3 11.5 10.7 84 1.4 ESE 11 24 6 13 1022.1 1020.6 0.0
25/09:30pm 13.7 11.4 10.5 81 1.7 E 13 26 7 14 1022.1 1020.6 0.0
25/09:00pm 14.1 12.3 10.7 80 1.8 ESE 11 20 6 11 1021.8 1020.3 0.0
25/08:30pm 13.5 12.9 11.7 89 1.0 SE 6 11 3 6 1021.7 1020.2 0.0
25/08:00pm 13.3 12.9 11.2 87 1.1 S 4 11 2 6 1021.8 1020.3 0.0
25/07:30pm 13.6 12.8 11.0 84 1.4 SSE 6 11 3 6 1021.8 1020.3 0.0
25/07:00pm 13.8 12.8 10.4 80 1.8 SSE 6 15 3 8 1021.9 1020.4 0.0
25/06:30pm 14.1 12.4 9.7 75 2.3 SE 9 19 5 10 1021.8 1020.3 0.0
25/06:00pm 14.9 13.4 9.1 68 3.0 SE 7 19 4 10 1021.9 1020.4 0.0
25/05:30pm 16.2 14.6 8.9 62 3.8 SSE 7 15 4 8 1021.9 1020.4 0.0
25/05:00pm 17.2 15.6 8.9 58 4.4 SSE 7 24 4 13 1022.0 1020.5 0.0
25/04:30pm 17.8 15.8 8.6 55 4.9 ESE 9 20 5 11 1022.0 1020.5 0.0
25/04:00pm 17.9 15.9 8.7 55 4.9 SE 9 22 5 12 1021.9 1020.4 0.0
25/03:30pm 18.4 16.7 9.7 57 4.7 ESE 9 20 5 11 1022.0 1020.5 0.0
25/03:00pm 17.3 14.8 8.4 56 4.7 ESE 11 20 6 11 1022.1 1020.6 0.0
25/02:30pm 17.4 15.0 8.5 56 4.7 ESE 11 20 6 11 1022.6 1021.1 0.0
25/02:00pm 16.8 13.9 8.2 57 4.5 ESE 13 20 7 11 1023.3 1021.8 0.0
25/01:30pm 15.5 13.2 7.3 58 4.2 SSE 9 17 5 9 1023.4 1021.9 0.0
25/01:00pm 16.2 13.2 7.9 58 4.3 E 13 22 7 12 1023.5 1022.0 0.0
25/12:30pm 15.2 12.5 7.5 60 3.9 ESE 11 26 6 14 1024.1 1022.6 0.0
25/12:00pm 14.8 12.5 7.6 62 3.6 ESE 9 19 5 10 1024.4 1022.9 0.0
25/11:30am 14.6 12.4 7.9 64 3.4 ESE 9 17 5 9 1024.5 1023.0 0.0
25/11:00am 13.7 10.8 6.6 62 3.5 ESE 11 19 6 10 1024.8 1023.3 0.0
25/10:30am 13.2 10.8 6.8 65 3.2 SE 9 20 5 11 1024.9 1023.5 0.0
25/10:00am 12.4 10.4 6.9 69 2.7 SE 7 15 4 8 1024.8 1023.3 0.0
25/09:30am 11.4 9.4 7.1 75 2.1 ESE 7 15 4 8 1024.9 1023.5 0.0
25/09:00am 10.6 8.5 6.7 77 1.9 ESE 7 13 4 7 1024.7 1023.2 0.8
25/08:30am 10.5 8.0 6.6 77 1.9 ESE 9 22 5 12 1024.6 1023.1 0.8
25/08:00am 9.5 6.9 6.2 80 1.6 ESE 9 19 5 10 1024.5 1023.0 0.8
25/07:30am 8.8 6.2 6.3 84 1.2 ESE 9 22 5 12 1024.2 1022.7 0.8
25/07:00am 8.5 5.9 6.3 86 1.0 ESE 9 15 5 8 1023.9 1022.4 0.8
25/06:30am 8.7 6.3 7.0 89 0.8 ESE 9 15 5 8 1023.8 1022.3 0.8
25/06:00am 8.8 6.9 7.4 91 0.7 ESE 7 15 4 8 1023.7 1022.2 0.8
25/05:30am 9.0 6.8 7.9 93 0.5 ESE 9 17 5 9 1023.7 1022.2 0.8
25/05:00am 9.4 7.9 8.6 95 0.4 ESE 6 9 3 5 1023.8 1022.3 0.8
25/04:30am 9.4 7.8 8.6 95 0.4 E 7 13 4 7 1023.9 1022.4 0.8
25/04:00am 9.5 7.9 8.7 95 0.4 ESE 7 15 4 8 1024.1 1022.6 0.8
25/03:30am 10.1 8.6 9.3 95 0.4 ESE 7 13 4 7 1024.2 1022.7 0.6
25/03:00am 10.4 9.0 9.5 94 0.5 ESE 7 13 4 7 1024.2 1022.7 0.6
25/02:30am 10.8 9.3 9.2 90 0.8 ESE 7 13 4 7 1024.3 1022.8 0.0
25/02:00am 10.6 9.4 9.4 92 0.6 E 6 11 3 6 1024.6 1023.1 0.0
25/01:30am 10.2 8.8 9.0 92 0.6 ESE 6 13 3 7 1024.8 1023.3 0.0
25/01:00am 10.7 9.2 9.3 91 0.7 ESE 7 9 4 5 1024.9 1023.5 0.0
25/12:30am 11.2 9.6 8.9 86 1.2 ESE 7 19 4 10 1025.0 1023.6 0.0
25/12:00am 11.3 10.3 8.9 85 1.2 ESE 4 7 2 4 1025.3 1023.8 0.0
 
Date/Time
EDT
Temp
°C
App
Temp
°C
Dew
Point
°C
Rel
Hum
%
Delta-T
°C
Wind Press
QNH
hPa
Press
MSL
hPa
Rain since
9am
mm
Dir  Spd
km/h
Gust
km/h
Spd
kts
Gust
kts
24/11:30pm 11.4 10.1 9.1 86 1.2 ESE 6 11 3 6 1025.4 1023.9 0.0
24/11:00pm 11.5 10.1 8.9 84 1.3 ESE 6 11 3 6 1025.6 1024.1 0.0
24/10:30pm 11.3 9.9 9.0 86 1.2 ESE 6 9 3 5 1025.8 1024.3 0.0
24/10:00pm 11.8 10.9 9.4 85 1.2 ESE 4 9 2 5 1026.0 1024.5 0.0
24/09:30pm 11.9 10.5 8.9 82 1.5 ESE 6 13 3 7 1025.9 1024.4 0.0
24/09:00pm 12.0 10.6 8.7 80 1.7 ESE 6 13 3 7 1025.6 1024.1 0.0
24/08:30pm 12.1 10.5 8.0 76 2.1 ESE 6 9 3 5 1025.5 1024.0 0.0
24/08:00pm 12.3 10.7 7.8 74 2.3 ESE 6 11 3 6 1025.3 1023.8 0.0
24/07:30pm 12.6 10.9 7.7 72 2.5 ESE 6 13 3 7 1025.0 1023.6 0.0
24/07:00pm 12.9 11.2 7.6 70 2.7 SE 6 9 3 5 1024.9 1023.5 0.0
24/06:30pm 13.3 11.3 7.1 66 3.1 SSE 7 15 4 8 1024.9 1023.5 0.0
24/06:00pm 13.5 11.5 7.1 65 3.2 SE 7 17 4 9 1024.9 1023.5 0.0
24/05:30pm 13.7 12.0 8.5 71 2.7 SSE 7 17 4 9 1024.9 1023.5 0.0
24/05:00pm 13.6 12.0 8.7 72 2.5 SE 7 13 4 7 1024.9 1023.5 0.0
24/04:30pm 13.7 12.0 8.5 71 2.7 SE 7 15 4 8 1024.9 1023.5 0.0
24/04:00pm 14.2 12.5 8.2 67 3.1 ESE 7 15 4 8 1024.9 1023.5 0.0
24/03:30pm 14.9 13.0 7.7 62 3.7 S 7 19 4 10 1025.0 1023.6 0.0
24/03:00pm 15.0 13.1 7.5 61 3.8 S 7 19 4 10 1025.2 1023.7 0.0
24/02:30pm 15.3 13.7 8.1 62 3.7 SSW 6 15 3 8 1025.4 1023.9 0.0
24/02:00pm 14.6 12.8 8.1 65 3.3 SSE 7 15 4 8 1025.3 1023.8 0.0
24/01:30pm 14.3 12.8 8.5 68 3.0 SSE 6 9 3 5 1025.2 1023.7 0.0
24/01:00pm 13.7 12.3 8.7 72 2.6 SE 6 9 3 5 1025.3 1023.8 0.0
24/12:30pm 13.7 12.7 9.0 73 2.4 ESE 4 6 2 3 1025.4 1023.9 0.0
24/12:00pm 13.7 12.5 9.4 75 2.2 SE 6 11 3 6 1025.5 1024.0 0.0
24/11:30am 13.7 13.0 10.1 79 1.9 SSE 4 9 2 5 1025.4 1023.9 0.0
24/11:00am 13.1 12.6 10.8 86 1.2 SSE 4 11 2 6 1025.4 1023.9 0.0
24/10:30am 12.6 11.9 10.0 84 1.4 SSE 4 7 2 4 1025.2 1023.7 0.0
24/10:00am 12.6 12.0 10.5 87 1.1 SSE 4 9 2 5 1025.0 1023.6 0.0
24/09:30am 11.5 11.0 10.7 95 0.4 ESE 4 9 2 5 1024.8 1023.3 0.0
24/09:00am 11.3 10.4 10.8 97 0.3 SSW 6 9 3 5 1024.8 1023.3 2.0
24/08:30am 11.5 11.1 11.0 97 0.3 ESE 4 11 2 6 1024.4 1022.9 2.0
24/08:00am 11.7 11.8 11.4 98 0.2 E 2 9 1 5 1024.1 1022.6 2.0
24/07:30am 11.6 11.3 11.3 98 0.2 E 4 6 2 3 1023.8 1022.3 2.0
24/07:00am 11.6 11.2 11.1 97 0.3 ESE 4 13 2 7 1023.5 1022.0 2.0
24/06:30am 12.0 11.7 11.5 97 0.3 SE 4 7 2 4 1023.3 1021.8 1.8
24/06:00am 12.0 12.2 11.7 98 0.2 ESE 2 6 1 3 1023.1 1021.5 1.4
24/05:30am 11.9 12.0 11.4 97 0.3 SE 2 6 1 3 1022.7 1021.2 1.4
24/05:00am 11.9 12.0 11.4 97 0.3 ESE 2 7 1 4 1022.6 1021.1 1.4
24/04:30am 11.9 11.6 11.4 97 0.3 ESE 4 7 2 4 1022.6 1021.1 1.4
24/04:00am 12.2 11.6 11.7 97 0.3 SE 6 11 3 6 1022.7 1021.2 1.4
24/03:30am 12.4 12.2 11.9 97 0.3 ESE 4 7 2 4 1022.8 1021.3 0.8
24/03:00am 12.5 12.4 12.0 97 0.3 ESE 4 7 2 4 1022.8 1021.3 0.6
24/02:30am 12.6 12.5 12.1 97 0.3 SE 4 9 2 5 1022.9 1021.4 0.4
24/02:00am 12.9 12.9 12.4 97 0.3 ESE 4 6 2 3 1023.2 1021.6 0.4
24/01:30am 13.0 13.0 12.5 97 0.3 SSE 4 9 2 5 1023.5 1022.0 0.2
24/01:00am 13.1 13.1 12.5 96 0.3 ESE 4 13 2 7 1023.5 1022.0 0.2
24/12:30am 13.2 12.9 12.6 96 0.3 SE 6 11 3 6 1023.5 1022.0 0.2
24/12:00am 13.3 12.9 12.5 95 0.4 ESE 6 13 3 7 1023.3 1021.8 0.0
 
Date/Time
EDT
Temp
°C
App
Temp
°C
Dew
Point
°C
Rel
Hum
%
Delta-T
°C
Wind Press
QNH
hPa
Press
MSL
hPa
Rain since
9am
mm
Dir  Spd
km/h
Gust
km/h
Spd
kts
Gust
kts
23/11:30pm 13.4 13.4 12.5 94 0.5 ESE 4 6 2 3 1023.3 1021.8 0.0
23/11:00pm 13.3 12.7 12.4 94 0.5 SE 7 17 4 9 1023.2 1021.6 0.0
23/10:30pm 13.5 12.9 12.4 93 0.6 ESE 7 13 4 7 1023.2 1021.6 0.0
23/10:00pm 13.7 13.2 12.6 93 0.6 ESE 7 15 4 8 1023.1 1021.5 0.0
23/09:30pm 13.7 13.1 12.4 92 0.7 ESE 7 17 4 9 1022.7 1021.2 0.0
23/09:00pm 13.9 12.9 12.3 90 0.9 ESE 9 17 5 9 1022.2 1020.7 0.0
23/08:30pm 14.4 13.5 11.4 82 1.6 SE 7 17 4 9 1021.8 1020.3 0.0
23/08:00pm 16.6 16.5 12.2 75 2.5 SE 4 11 2 6 1021.2 1019.6 0.0
23/07:30pm 17.5 16.4 10.6 64 3.8 SW 7 17 4 9 1020.8 1019.3 0.0
23/07:00pm 18.1 17.3 11.0 63 3.9 SW 6 13 3 7 1020.5 1019.0 0.0
23/06:30pm 18.6 17.7 11.4 63 4.0 WSW 7 15 4 8 1020.2 1018.7 0.0
23/06:00pm 19.4 18.6 10.9 58 4.7 SW 6 13 3 7 1020.0 1018.5 0.0
23/05:30pm 21.0 20.7 11.6 55 5.4 SW 4 7 2 4 1019.8 1018.3 0.0
23/05:00pm 21.8 21.7 13.4 59 4.9 WSW 6 13 3 7 1019.5 1017.9 0.0
23/04:30pm 21.1 20.6 12.5 58 5.0 SW 7 17 4 9 1019.5 1017.9 0.0
23/04:00pm 20.6 19.9 11.5 56 5.1 SW 6 11 3 6 1019.5 1017.9 0.0
23/03:30pm 20.6 19.8 11.8 57 5.0 WSW 7 17 4 9 1019.5 1017.9 0.0
23/03:00pm 19.6 18.9 11.4 59 4.6 SW 6 15 3 8 1019.7 1018.1 0.0
23/02:30pm 20.1 19.6 12.8 63 4.2 SW 7 11 4 6 1019.7 1018.1 0.0
23/02:00pm 18.9 18.5 12.4 66 3.7 SSW 6 17 3 9 1019.7 1018.1 0.0
23/01:30pm 19.5 19.1 12.5 64 4.0 SW 6 15 3 8 1019.6 1018.0 0.0
23/01:00pm 18.5 17.9 11.8 65 3.8 W 6 9 3 5 1019.7 1018.1 0.0
23/12:30pm 18.7 17.8 11.5 63 4.0 W 7 13 4 7 1019.7 1018.1 0.0
23/12:00pm 17.4 16.1 11.2 67 3.4 SW 9 19 5 10 1019.7 1018.1 0.0

Latest Capital City Observations: Canberra | Sydney | Melbourne | Brisbane | Adelaide | Perth | Hobart | Darwin

Other Formats:

Comma delimited format used in spreadsheet applications
http://www.bom.gov.au/fwo/IDV60901/IDV60901.94872.axf

JavaScript Object Notation format (JSON) in row-major order
http://www.bom.gov.au/fwo/IDV60901/IDV60901.94872.json